createdAt,value
2024-03-15T00:04:11.659Z,3.28
2024-03-15T00:09:14.076Z,2.10
2024-03-15T00:14:16.375Z,4.15
2024-03-15T00:19:18.790Z,2.75
2024-03-15T00:24:21.104Z,3.70
2024-03-15T00:29:23.450Z,3.60
2024-03-15T00:34:25.776Z,3.58
2024-03-15T00:39:28.066Z,2.70
2024-03-15T00:44:30.388Z,3.03
2024-03-15T00:49:35.696Z,3.20
2024-03-15T00:54:38.036Z,2.13
2024-03-15T00:59:40.472Z,2.65
2024-03-15T01:04:42.684Z,2.47
2024-03-15T01:09:45.028Z,2.63
2024-03-15T01:14:47.284Z,3.10
2024-03-15T01:19:49.870Z,3.45
2024-03-15T01:24:53.496Z,2.92
2024-03-15T01:29:55.799Z,2.92
2024-03-15T01:34:58.149Z,2.95
2024-03-15T01:40:00.447Z,3.58
2024-03-15T01:45:02.735Z,4.00
2024-03-15T01:50:08.785Z,2.90
2024-03-15T01:55:11.142Z,2.88
2024-03-15T02:00:14.874Z,2.78
2024-03-15T02:05:17.254Z,2.47
2024-03-15T02:10:22.005Z,2.42
2024-03-15T02:15:24.302Z,2.63
2024-03-15T02:20:27.600Z,3.08
2024-03-15T02:25:29.906Z,3.50
2024-03-15T02:30:32.241Z,2.78
2024-03-15T02:35:34.629Z,1.95
2024-03-15T02:40:36.857Z,3.75
2024-03-15T02:45:39.185Z,2.88
2024-03-15T02:50:41.533Z,2.58
2024-03-15T02:55:43.819Z,2.47
2024-03-15T03:00:47.326Z,4.72
2024-03-15T03:05:49.734Z,2.88
2024-03-15T03:10:51.954Z,3.10
2024-03-15T03:15:54.339Z,3.75
2024-03-15T03:20:56.907Z,4.22
2024-03-15T03:26:00.443Z,4.22
2024-03-15T03:31:03.357Z,3.67
2024-03-15T03:36:05.924Z,4.30
2024-03-15T03:41:08.235Z,4.68
2024-03-15T03:46:10.636Z,3.95
2024-03-15T03:51:13.046Z,4.93
2024-03-15T03:56:16.828Z,4.30
2024-03-15T04:06:22.609Z,3.55
2024-03-15T04:11:26.071Z,3.95
2024-03-15T04:16:28.402Z,5.80
2024-03-15T04:21:30.806Z,4.43
2024-03-15T04:26:33.056Z,6.10
2024-03-15T04:31:35.427Z,5.55
2024-03-15T04:36:37.724Z,5.57
2024-03-15T04:41:40.014Z,4.75
2024-03-15T04:46:42.254Z,6.75
2024-03-15T04:51:45.175Z,4.88
2024-03-15T04:56:47.405Z,6.78
2024-03-15T05:01:49.768Z,7.38
2024-03-15T05:06:52.046Z,8.07
2024-03-15T05:11:54.378Z,6.88
2024-03-15T05:16:56.704Z,6.95
2024-03-15T05:22:00.117Z,6.20
2024-03-15T05:27:02.445Z,7.20
2024-03-15T05:32:05.090Z,6.60
2024-03-15T05:37:08.195Z,7.13
2024-03-15T05:42:10.585Z,7.63
2024-03-15T05:47:13.813Z,7.13
2024-03-15T05:52:16.441Z,7.38
2024-03-15T05:57:18.924Z,9.10
2024-03-15T06:02:21.585Z,7.70
2024-03-15T06:07:23.882Z,7.07
2024-03-15T06:12:28.802Z,7.13
2024-03-15T06:17:32.947Z,6.57
2024-03-15T06:22:35.303Z,7.22
2024-03-15T06:27:37.682Z,5.25
2024-03-15T06:32:41.261Z,6.40
2024-03-15T06:37:45.824Z,7.30
2024-03-15T06:43:10.843Z,7.15
2024-03-15T06:48:19.881Z,6.63
2024-03-15T06:53:22.520Z,11.35
2024-03-15T06:58:25.034Z,9.50
2024-03-15T07:03:29.073Z,6.78
2024-03-15T07:08:31.493Z,7.13
2024-03-15T07:13:33.747Z,10.38
2024-03-15T07:18:36.154Z,7.75
2024-03-15T07:23:40.464Z,7.97
2024-03-15T07:28:43.621Z,8.10
2024-03-15T07:33:45.922Z,9.05
2024-03-15T07:38:49.473Z,8.45
2024-03-15T07:43:51.944Z,7.70
2024-03-15T07:48:54.290Z,8.50
2024-03-15T07:53:57.134Z,8.00
2024-03-15T07:58:59.493Z,9.18
2024-03-15T08:04:01.777Z,8.93
2024-03-15T08:09:05.417Z,8.13
2024-03-15T08:14:07.785Z,8.77
2024-03-15T08:19:10.339Z,7.22
2024-03-15T08:24:14.312Z,7.13
2024-03-15T08:29:19.118Z,6.13
2024-03-15T08:34:23.077Z,5.07
2024-03-15T08:39:25.980Z,7.10
2024-03-15T08:44:28.446Z,5.18
2024-03-15T08:49:30.921Z,5.22
2024-03-15T08:54:35.950Z,4.97
2024-03-15T08:59:38.398Z,4.07
2024-03-15T09:04:40.742Z,4.95
2024-03-15T09:09:44.617Z,5.82
2024-03-15T09:14:47.539Z,6.03
2024-03-15T09:19:49.874Z,5.32
2024-03-15T09:24:53.242Z,5.32
2024-03-15T09:29:55.603Z,5.25
2024-03-15T09:34:58.243Z,4.20
2024-03-15T09:40:00.741Z,5.70
2024-03-15T09:45:03.421Z,3.92
2024-03-15T09:50:06.289Z,5.38
2024-03-15T09:55:11.713Z,5.03
2024-03-15T10:00:16.489Z,4.40
2024-03-15T10:05:18.754Z,4.20
2024-03-15T10:10:21.078Z,4.10
2024-03-15T10:15:25.156Z,3.85
2024-03-15T10:20:27.557Z,2.88
2024-03-15T10:25:35.576Z,3.45
2024-03-15T10:30:39.294Z,2.30
2024-03-15T10:35:43.014Z,2.58
2024-03-15T10:40:46.121Z,2.38
2024-03-15T10:45:50.374Z,2.70
2024-03-15T10:50:54.201Z,0.70
2024-03-15T10:55:56.795Z,2.33
2024-03-15T11:01:01.374Z,1.48
2024-03-15T11:06:04.703Z,2.30
2024-03-15T11:11:08.158Z,2.40
2024-03-15T11:16:22.493Z,2.40
2024-03-15T11:21:25.254Z,2.17
2024-03-15T11:26:30.001Z,2.50
2024-03-15T11:31:33.878Z,2.50
2024-03-15T11:36:36.377Z,2.35
2024-03-15T11:41:39.598Z,2.83
2024-03-15T11:46:42.119Z,2.53
2024-03-15T11:51:45.303Z,2.65
2024-03-15T11:56:47.856Z,3.75
2024-03-15T12:01:50.249Z,3.63
2024-03-15T12:06:52.727Z,3.95
2024-03-15T12:11:56.340Z,3.60
2024-03-15T12:16:58.789Z,3.22
2024-03-15T12:22:01.163Z,3.22
2024-03-15T12:27:04.032Z,3.70
2024-03-15T12:32:06.597Z,4.50
2024-03-15T12:37:09.676Z,3.13
2024-03-15T12:42:17.263Z,3.75
2024-03-15T12:47:19.743Z,3.05
2024-03-15T12:52:22.122Z,3.72
2024-03-15T12:57:24.445Z,3.60
2024-03-15T13:02:27.348Z,3.97
2024-03-15T13:07:29.616Z,4.20
2024-03-15T13:17:35.143Z,4.38
2024-03-15T13:22:37.425Z,3.65
2024-03-15T13:27:39.732Z,4.72
2024-03-15T13:32:42.658Z,3.40
2024-03-15T13:37:45.014Z,3.33
2024-03-15T13:42:50.033Z,3.92
2024-03-15T13:47:52.986Z,4.22
2024-03-15T13:52:55.349Z,3.28
2024-03-15T14:03:04.842Z,3.30
2024-03-15T14:08:07.994Z,3.70
2024-03-15T14:13:10.399Z,3.65
2024-03-15T14:18:13.297Z,4.75
2024-03-15T14:23:15.736Z,4.35
2024-03-15T14:28:18.116Z,3.75
2024-03-15T14:33:20.498Z,3.83
2024-03-15T14:38:23.088Z,4.32
2024-03-15T14:43:25.366Z,4.40
2024-03-15T14:48:27.792Z,3.50
2024-03-15T14:53:30.286Z,4.18
2024-03-15T14:58:32.623Z,3.97
2024-03-15T15:03:36.681Z,5.25
2024-03-15T15:08:40.987Z,5.53
2024-03-15T15:13:44.008Z,4.60
2024-03-15T15:23:48.655Z,4.60
2024-03-15T15:28:51.503Z,4.50
2024-03-15T15:33:53.883Z,4.03
2024-03-15T15:38:56.413Z,5.55
2024-03-15T15:43:59.083Z,5.20
2024-03-15T15:49:01.483Z,4.70
2024-03-15T15:54:08.469Z,4.85
2024-03-15T15:59:11.465Z,5.30
2024-03-15T16:04:13.816Z,10.45
2024-03-15T16:14:19.584Z,4.30
2024-03-15T16:19:21.975Z,3.83
2024-03-15T16:24:26.233Z,3.42
2024-03-15T16:29:28.581Z,3.65
2024-03-15T16:34:32.004Z,3.90
2024-03-15T16:39:34.529Z,14.07
2024-03-15T16:49:38.930Z,6.13
2024-03-15T16:54:41.273Z,21.58
2024-03-15T16:59:43.637Z,14.70
2024-03-15T17:04:45.895Z,17.58
2024-03-15T17:09:48.245Z,6.15
2024-03-15T17:14:50.527Z,4.60
2024-03-15T17:19:52.972Z,4.07
2024-03-15T17:24:55.921Z,5.43
2024-03-15T17:30:01.197Z,7.30
2024-03-15T17:35:05.508Z,37.15
2024-03-15T17:40:11.190Z,38.70
2024-03-15T17:45:16.123Z,12.10
2024-03-15T17:50:18.530Z,5.70
2024-03-15T17:55:22.036Z,4.68
2024-03-15T18:00:26.819Z,7.45
2024-03-15T18:05:29.272Z,4.82
2024-03-15T18:10:31.706Z,4.47
2024-03-15T18:15:34.229Z,3.83
2024-03-15T18:20:37.195Z,5.13
2024-03-15T18:25:39.504Z,5.35
2024-03-15T18:30:41.767Z,4.03
2024-03-15T18:35:44.144Z,3.55
2024-03-15T18:40:46.477Z,3.38
2024-03-15T18:45:48.991Z,4.20
2024-03-15T18:50:51.338Z,4.47
2024-03-15T18:55:53.607Z,4.20
2024-03-15T19:00:56.911Z,4.15
2024-03-15T19:06:01.023Z,3.70
2024-03-15T19:11:03.520Z,4.25
2024-03-15T19:16:06.486Z,4.35
2024-03-15T19:21:08.930Z,4.55
2024-03-15T19:26:11.146Z,5.40
2024-03-15T19:31:13.680Z,4.97
2024-03-15T19:36:16.104Z,4.82
2024-03-15T19:41:18.465Z,4.28
2024-03-15T19:46:21.030Z,4.75
2024-03-15T19:51:25.969Z,4.97
2024-03-15T19:56:28.325Z,4.90
2024-03-15T20:01:31.076Z,4.30
2024-03-15T20:06:33.432Z,5.20
2024-03-15T20:11:36.291Z,5.15
2024-03-15T20:16:38.613Z,5.22
2024-03-15T20:21:45.698Z,5.28
2024-03-15T20:26:49.419Z,4.38
2024-03-15T20:31:51.829Z,4.90
2024-03-15T20:36:54.201Z,4.97
2024-03-15T20:41:56.719Z,5.07
2024-03-15T20:46:59.284Z,5.43
2024-03-15T20:52:02.163Z,5.90
2024-03-15T20:57:04.634Z,4.85
2024-03-15T21:02:10.079Z,5.75
2024-03-15T21:07:12.923Z,5.38
2024-03-15T21:12:15.382Z,4.97
2024-03-15T21:17:17.777Z,7.30
2024-03-15T21:22:20.178Z,6.97
2024-03-15T21:27:23.586Z,5.95
2024-03-15T21:32:25.968Z,4.80
2024-03-15T21:37:28.212Z,6.22
2024-03-15T21:42:30.665Z,5.72
2024-03-15T21:47:33.038Z,5.55
2024-03-15T21:52:35.312Z,5.72
2024-03-15T21:57:37.665Z,6.25
2024-03-15T22:02:40.036Z,6.38
2024-03-15T22:07:42.506Z,5.40
2024-03-15T22:12:48.039Z,5.72
2024-03-15T22:17:50.597Z,5.63
2024-03-15T22:22:53.123Z,5.38
2024-03-15T22:27:56.442Z,6.93
2024-03-15T22:32:59.335Z,4.72
2024-03-15T22:38:02.410Z,5.53
2024-03-15T22:43:05.069Z,5.40
2024-03-15T22:53:13.263Z,5.82
2024-03-15T22:58:15.651Z,5.85
2024-03-15T23:03:17.939Z,4.93
2024-03-15T23:08:20.368Z,6.57
2024-03-15T23:13:22.608Z,6.18
2024-03-15T23:18:26.875Z,6.40
2024-03-15T23:23:29.432Z,5.50
2024-03-15T23:33:34.385Z,5.63
2024-03-15T23:38:36.615Z,4.45
2024-03-15T23:43:38.959Z,5.97
2024-03-15T23:48:42.110Z,6.10
2024-03-15T23:53:44.643Z,5.00
2024-03-15T23:58:46.881Z,5.10
